Menu Close Menu
Station Historical Data
Daily Summary for May 5, 2017 Units:  English    Metric   Both
« Previous Day
Next Day »
Daily Weekly Monthly Yearly Custom
  High: Low: Average:
Temperature: 63.1 °F 47.4 °F 56.8 °F
Dew Point: 60.7 °F 43.4 °F 54.1 °F
Humidity: 93% 86% 91%
Wind Speed: 1.0mph 0.0mph 0mph
Wind Gust: 6.0mph - -
Wind- - WSW
Pressure: 29.74 in 29.56 in -
Precipitation: 0.03 in    
Historical Graphs
 
 
Tabular Data for May 5, 2017
Time Temperature Dew Point Pressure Wind Wind Speed Wind Gust Humidity Rainfall Rate (Hourly) solar Conditions
00:00 63.1 °F 60.7 °F 29.60 in Calm     92% 0.00 in WeatherDisplay:10.37 W/m2 RA
00:15 63.1 °F 60.7 °F 29.59 in Calm     92% 0.00 in WeatherDisplay:10.37 W/m2 SCT
00:30 63.1 °F 60.7 °F 29.58 in Calm     92% 0.00 in WeatherDisplay:10.37 W/m2 SCT
00:45 63.1 °F 60.7 °F 29.58 in Calm     92% 0.00 in WeatherDisplay:10.37 W/m2 SCT
01:00 63.1 °F 60.7 °F 29.57 in Calm     92% 0.00 in WeatherDisplay:10.37 W/m2 SCT
01:15 63.1 °F 60.7 °F 29.57 in Calm     92% 0.00 in WeatherDisplay:10.37 W/m2 SCT
01:30 63.1 °F 60.7 °F 29.57 in Calm     92% 0.00 in WeatherDisplay:10.37 W/m2 SCT
01:45 63.1 °F 60.7 °F 29.57 in Calm     92% 0.00 in WeatherDisplay:10.37 W/m2 SCT
02:00 63.1 °F 60.7 °F 29.56 in Calm     92% 0.00 in WeatherDisplay:10.37 W/m2 SCT
02:15 63.1 °F 60.7 °F 29.57 in Calm     92% 0.00 in WeatherDisplay:10.37 W/m2 SCT
02:30 63.1 °F 60.7 °F 29.57 in Calm     92% 0.00 in WeatherDisplay:10.37 W/m2 SCT
02:45 63.1 °F 60.7 °F 29.56 in Calm     92% 0.00 in WeatherDisplay:10.37 W/m2 SCT
03:00 63.1 °F 60.7 °F 29.57 in Calm     92% 0.00 in WeatherDisplay:10.37 W/m2 SCT
03:15 63.1 °F 60.7 °F 29.57 in Calm     92% 0.00 in WeatherDisplay:10.37 W/m2 SCT
03:30 63.1 °F 60.7 °F 29.56 in Calm     92% 0.00 in WeatherDisplay:10.37 W/m2 SCT
03:45 63.1 °F 60.7 °F 29.57 in Calm     92% 0.00 in WeatherDisplay:10.37 W/m2 SCT
04:00 63.1 °F 60.7 °F 29.56 in Calm     92% 0.00 in WeatherDisplay:10.37 W/m2 SCT
04:15 63.1 °F 60.7 °F 29.57 in Calm     92% 0.00 in WeatherDisplay:10.37 W/m2 SCT
04:30 63.1 °F 60.7 °F 29.57 in Calm     92% 0.00 in WeatherDisplay:10.37 W/m2 SCT
04:45 63.1 °F 60.7 °F 29.57 in Calm     92% 0.00 in WeatherDisplay:10.37 W/m2 SCT
05:00 63.1 °F 60.7 °F 29.57 in Calm     92% 0.00 in WeatherDisplay:10.37 W/m2 SCT
05:15 63.1 °F 60.7 °F 29.58 in Calm     92% 0.00 in WeatherDisplay:10.37 W/m2 SCT
05:30 63.1 °F 60.7 °F 29.57 in Calm     92% 0.00 in WeatherDisplay:10.37 W/m2 SCT
05:45 63.1 °F 60.7 °F 29.57 in Calm     92% 0.00 in WeatherDisplay:10.37 W/m2 SCT
06:00 63.1 °F 60.7 °F 29.56 in Calm     92% 0.00 in WeatherDisplay:10.37 W/m2 SCT
06:15 63.1 °F 60.7 °F 29.56 in Calm     92% 0.00 in WeatherDisplay:10.37 W/m2 SCT
06:30 63.1 °F 60.7 °F 29.57 in Calm     92% 0.00 in WeatherDisplay:10.37 W/m2 SCT
06:45 63.1 °F 60.7 °F 29.57 in Calm     92% 0.00 in WeatherDisplay:10.37 W/m2 SCT
07:00 63.1 °F 60.7 °F 29.57 in Calm     92% 0.00 in WeatherDisplay:10.37 W/m2 SCT
07:15 63.1 °F 60.7 °F 29.56 in Calm     92% 0.00 in WeatherDisplay:10.37 W/m2 SCT
07:30 63.1 °F 60.7 °F 29.58 in Calm     92% 0.00 in WeatherDisplay:10.37 W/m2 SCT
07:45 63.1 °F 60.7 °F 29.58 in Calm     92% 0.00 in WeatherDisplay:10.37 W/m2 SCT
08:00 63.1 °F 60.7 °F 29.58 in Calm     92% 0.00 in WeatherDisplay:10.37 W/m2 SCT
08:15 63.1 °F 60.7 °F 29.58 in Calm     92% 0.00 in WeatherDisplay:10.37 W/m2 SCT
08:30 63.1 °F 60.7 °F 29.58 in Calm     92% 0.00 in WeatherDisplay:10.37 W/m2 SCT
08:45 63.1 °F 60.7 °F 29.59 in Calm     92% 0.00 in WeatherDisplay:10.37 W/m2 SCT
09:00 63.1 °F 60.7 °F 29.59 in Calm     92% 0.00 in WeatherDisplay:10.37 W/m2 SCT
09:15 63.1 °F 60.7 °F 29.59 in Calm     92% 0.00 in WeatherDisplay:10.37 W/m2 SCT
09:30 63.1 °F 60.7 °F 29.59 in Calm     92% 0.00 in WeatherDisplay:10.37 W/m2 SCT
09:45 63.1 °F 60.7 °F 29.58 in Calm     92% 0.00 in WeatherDisplay:10.37 W/m2 SCT
10:00 63.1 °F 60.7 °F 29.58 in Calm     92% 0.00 in WeatherDisplay:10.37 W/m2 SCT
10:15 63.1 °F 60.7 °F 29.58 in Calm     92% 0.00 in WeatherDisplay:10.37 W/m2 SCT
10:30 63.1 °F 60.7 °F 29.58 in Calm     92% 0.00 in WeatherDisplay:10.37 W/m2 SCT
10:45 63.1 °F 60.7 °F 29.58 in Calm     92% 0.00 in WeatherDisplay:10.37 W/m2 SCT
11:00 63.1 °F 60.7 °F 29.58 in Calm     92% 0.00 in WeatherDisplay:10.37 W/m2 SCT
11:15 63.1 °F 60.7 °F 29.59 in Calm     92% 0.00 in WeatherDisplay:10.37 W/m2 SCT
11:30 50.8 °F 48.8 °F 29.59 in Calm   1.0 mph 93% 0.00 in WeatherDisplay:10.37 W/m2 SCT
11:45 63.1 °F 60.7 °F 29.58 in Calm     92% 0.00 in WeatherDisplay:10.37 W/m2 SCT
12:00 54.4 °F 51.8 °F 29.59 in Calm   1.0 mph 91% 0.00 in WeatherDisplay:10.37 W/m2 SCT
12:15 52.0 °F 49.5 °F 29.59 in Calm   1.0 mph 91% 0.00 in WeatherDisplay:10.37 W/m2 SCT
12:30 51.4 °F 48.8 °F 29.59 in Calm   1.0 mph 91% 0.00 in WeatherDisplay:10.37 W/m2 SCT
12:45 51.9 °F 49.7 °F 29.59 in Calm   1.0 mph 92% 0.00 in WeatherDisplay:10.37 W/m2 SCT
13:00 51.9 °F 49.4 °F 29.60 in Calm   2.0 mph 91% 0.00 in WeatherDisplay:10.37 W/m2 SCT
13:15 51.7 °F 48.9 °F 29.60 in Calm   2.0 mph 90% 0.01 in WeatherDisplay:10.37 W/m2 SCT
13:30 51.4 °F 48.9 °F 29.61 in Calm   3.0 mph 91% 0.01 in WeatherDisplay:10.37 W/m2 RA
13:45 51.6 °F 48.8 °F 29.60 in Calm     90% 0.00 in WeatherDisplay:10.37 W/m2 SCT
14:00 51.6 °F 48.8 °F 29.60 in Calm     90% 0.00 in WeatherDisplay:10.37 W/m2 SCT
14:15 52.1 °F 49.3 °F 29.61 in Calm   1.0 mph 90% 0.00 in WeatherDisplay:10.37 W/m2 SCT
14:30 52.2 °F 49.7 °F 29.62 in Calm   2.0 mph 91% 0.00 in WeatherDisplay:10.37 W/m2 SCT
14:45 52.4 °F 49.8 °F 29.62 in Calm   2.0 mph 91% 0.00 in WeatherDisplay:10.37 W/m2 SCT
15:00 53.7 °F 51.1 °F 29.62 in Calm   3.0 mph 91% 0.01 in WeatherDisplay:10.37 W/m2 SCT
15:15 53.2 °F 49.4 °F 29.62 in Calm   3.0 mph 87% 0.00 in WeatherDisplay:10.37 W/m2 SCT
15:30 51.6 °F 48.8 °F 29.60 in Calm     90% 0.00 in WeatherDisplay:10.37 W/m2 SCT
15:45 52.7 °F 48.9 °F 29.62 in Calm   1.0 mph 87% 0.00 in WeatherDisplay:10.37 W/m2 SCT
16:00 52.3 °F 48.8 °F 29.62 in NW 1.0 mph 2.0 mph 88% 0.00 in WeatherDisplay:10.37 W/m2 SCT
16:15 52.7 °F 49.2 °F 29.62 in Calm   1.0 mph 88% 0.00 in WeatherDisplay:10.37 W/m2 SCT
16:30 52.7 °F 49.2 °F 29.62 in Calm   1.0 mph 88% 0.00 in WeatherDisplay:10.37 W/m2 SCT
16:45 52.7 °F 49.2 °F 29.62 in Calm   1.0 mph 88% 0.00 in WeatherDisplay:10.37 W/m2 SCT
17:00 51.8 °F 48.7 °F 29.63 in NW 1.0 mph 3.0 mph 89% 0.00 in WeatherDisplay:10.37 W/m2 SCT
17:15 51.5 °F 48.4 °F 29.64 in Calm   2.0 mph 89% 0.00 in WeatherDisplay:10.37 W/m2 SCT
17:30 51.6 °F 48.2 °F 29.64 in Calm     88% 0.00 in WeatherDisplay:10.37 W/m2 SCT
17:45 51.6 °F 48.2 °F 29.64 in Calm     88% 0.00 in WeatherDisplay:10.37 W/m2 SCT
18:00 50.8 °F 48.0 °F 29.64 in Calm     90% 0.00 in WeatherDisplay:10.37 W/m2 SCT
18:15 50.5 °F 48.0 °F 29.65 in Calm   2.0 mph 91% 0.00 in WeatherDisplay:10.37 W/m2 SCT
18:30 50.8 °F 48.0 °F 29.64 in Calm     90% 0.00 in WeatherDisplay:10.37 W/m2 SCT
18:45 50.4 °F 47.9 °F 29.65 in Calm     91% 0.00 in WeatherDisplay:10.37 W/m2 SCT
19:00 50.3 °F 47.8 °F 29.66 in Calm     91% 0.00 in WeatherDisplay:10.37 W/m2 SCT
19:15 50.4 °F 47.9 °F 29.66 in Calm   1.0 mph 91% 0.00 in WeatherDisplay:10.37 W/m2 SCT
19:30 50.3 °F 47.8 °F 29.66 in Calm   1.0 mph 91% 0.00 in WeatherDisplay:10.37 W/m2 SCT
19:45 50.4 °F 47.9 °F 29.66 in Calm     91% 0.00 in WeatherDisplay:10.37 W/m2 SCT
20:00 50.0 °F 47.5 °F 29.66 in Calm   1.0 mph 91% 0.00 in WeatherDisplay:10.37 W/m2 SCT
20:15 49.8 °F 47.0 °F 29.67 in Calm   1.0 mph 90% 0.00 in WeatherDisplay:10.37 W/m2 SCT
20:30 49.8 °F 47.0 °F 29.68 in Calm   2.0 mph 90% 0.00 in WeatherDisplay:10.37 W/m2 SCT
20:45 49.5 °F 46.4 °F 29.69 in Calm   5.0 mph 89% 0.00 in WeatherDisplay:10.37 W/m2 SCT
21:00 49.3 °F 46.2 °F 29.70 in Calm   3.0 mph 89% 0.00 in WeatherDisplay:10.37 W/m2 SCT
21:15 49.3 °F 46.2 °F 29.70 in Calm     89% 0.00 in WeatherDisplay:10.37 W/m2 SCT
21:30 49.3 °F 46.2 °F 29.70 in Calm     89% 0.00 in WeatherDisplay:10.37 W/m2 SCT
21:45 49.3 °F 46.2 °F 29.70 in Calm     89% 0.00 in WeatherDisplay:10.37 W/m2 SCT
22:00 48.6 °F 45.5 °F 29.72 in Calm   2.0 mph 89% 0.00 in WeatherDisplay:10.37 W/m2 SCT
22:15 48.5 °F 45.4 °F 29.72 in Calm   1.0 mph 89% 0.00 in WeatherDisplay:10.37 W/m2 SCT
22:30 48.5 °F 45.4 °F 29.72 in Calm     89% 0.00 in WeatherDisplay:10.37 W/m2 SCT
22:45 48.0 °F 44.3 °F 29.73 in East 1.0 mph 5.0 mph 87% 0.00 in WeatherDisplay:10.37 W/m2 SCT
23:00 47.7 °F 44.0 °F 29.73 in WSW 1.0 mph 6.0 mph 87% 0.00 in WeatherDisplay:10.37 W/m2 SCT
23:15 47.6 °F 43.9 °F 29.74 in Calm   1.0 mph 87% 0.00 in WeatherDisplay:10.37 W/m2 SCT
23:30 47.5 °F 43.8 °F 29.74 in Calm   5.0 mph 87% 0.00 in WeatherDisplay:10.37 W/m2 SCT
23:45 47.4 °F 43.4 °F 29.74 in Calm   3.0 mph 86% 0.00 in WeatherDisplay:10.37 W/m2 SCT
Piedmont Bend
Compliments of Weather Underground - 4 mb